createdAt,value
2023-03-22T00:02:18.311Z,14.03
2023-03-22T00:06:18.394Z,14.00
2023-03-22T00:10:18.579Z,13.97
2023-03-22T00:14:18.777Z,13.93
2023-03-22T00:18:18.921Z,13.91
2023-03-22T00:22:18.917Z,13.85
2023-03-22T00:26:18.861Z,13.85
2023-03-22T00:30:18.859Z,13.83
2023-03-22T00:34:18.810Z,13.82
2023-03-22T00:38:18.728Z,13.76
2023-03-22T00:42:18.838Z,13.71
2023-03-22T00:46:19.749Z,13.67
2023-03-22T00:50:18.661Z,13.69
2023-03-22T00:54:18.623Z,13.66
2023-03-22T00:58:18.587Z,13.62
2023-03-22T01:02:18.527Z,13.62
2023-03-22T01:06:18.503Z,13.57
2023-03-22T01:10:18.512Z,13.55
2023-03-22T01:14:18.465Z,13.51
2023-03-22T01:18:18.584Z,13.49
2023-03-22T01:22:18.514Z,13.43
2023-03-22T01:26:18.575Z,13.43
2023-03-22T01:30:18.512Z,13.42
2023-03-22T01:34:18.540Z,13.40
2023-03-22T01:38:18.595Z,13.38
2023-03-22T01:42:18.640Z,13.35
2023-03-22T01:46:18.768Z,13.34
2023-03-22T01:50:18.804Z,13.26
2023-03-22T01:54:18.921Z,13.17
2023-03-22T01:58:18.992Z,13.13
2023-03-22T02:02:19.180Z,13.14
2023-03-22T02:06:19.138Z,12.97
2023-03-22T02:10:19.255Z,13.04
2023-03-22T02:14:19.371Z,13.07
2023-03-22T02:18:19.446Z,13.07
2023-03-22T02:22:19.549Z,13.04
2023-03-22T02:26:19.847Z,13.02
2023-03-22T02:30:20.013Z,13.00
2023-03-22T02:34:20.063Z,12.96
2023-03-22T02:38:20.318Z,12.96
2023-03-22T02:42:20.447Z,12.93
2023-03-22T02:46:20.431Z,12.87
2023-03-22T02:50:20.377Z,12.88
2023-03-22T02:54:20.351Z,12.85
2023-03-22T02:58:20.326Z,12.75
2023-03-22T03:02:20.299Z,12.78
2023-03-22T03:06:20.224Z,12.73
2023-03-22T03:10:20.217Z,12.61
2023-03-22T03:14:20.173Z,12.59
2023-03-22T03:18:20.113Z,12.61
2023-03-22T03:22:20.341Z,12.58
2023-03-22T03:26:20.321Z,12.53
2023-03-22T03:30:20.236Z,12.50
2023-03-22T03:34:20.173Z,12.43
2023-03-22T03:38:20.132Z,12.44
2023-03-22T03:42:20.062Z,12.39
2023-03-22T03:46:20.045Z,12.36
2023-03-22T03:50:20.010Z,12.36
2023-03-22T03:54:19.943Z,12.32
2023-03-22T03:58:19.915Z,12.27
2023-03-22T04:02:19.886Z,12.22
2023-03-22T04:06:19.858Z,12.22
2023-03-22T04:10:19.790Z,12.24
2023-03-22T04:14:19.767Z,12.22
2023-03-22T04:18:19.860Z,12.18
2023-03-22T04:22:19.737Z,12.19
2023-03-22T04:26:19.764Z,12.15
2023-03-22T04:30:19.698Z,12.12
2023-03-22T04:34:19.638Z,12.11
2023-03-22T04:38:19.643Z,12.10
2023-03-22T04:42:19.599Z,12.09
2023-03-22T04:46:19.705Z,11.99
2023-03-22T04:50:19.977Z,12.01
2023-03-22T04:54:20.164Z,11.94
2023-03-22T04:58:20.283Z,11.90
2023-03-22T05:02:20.492Z,11.89
2023-03-22T05:06:20.437Z,11.87
2023-03-22T05:10:20.386Z,11.87
2023-03-22T05:14:20.416Z,11.87
2023-03-22T05:18:20.320Z,11.81
2023-03-22T05:22:20.302Z,11.81
2023-03-22T05:26:20.267Z,11.76
2023-03-22T05:30:20.232Z,11.71
2023-03-22T05:34:20.192Z,11.71
2023-03-22T05:38:20.134Z,11.68
2023-03-22T05:42:20.107Z,11.63
2023-03-22T05:46:20.148Z,11.62
2023-03-22T05:50:20.131Z,11.59
2023-03-22T05:54:20.360Z,11.65
2023-03-22T05:58:20.413Z,11.62
2023-03-22T06:02:20.396Z,11.64
2023-03-22T06:06:20.250Z,11.68
2023-03-22T06:10:20.229Z,11.71
2023-03-22T06:14:20.204Z,11.71
2023-03-22T06:18:20.151Z,11.77
2023-03-22T06:22:20.083Z,11.82
2023-03-22T06:26:20.073Z,11.77
2023-03-22T06:30:20.021Z,11.79
2023-03-22T06:34:20.023Z,11.77
2023-03-22T06:38:19.980Z,11.71
2023-03-22T06:42:19.955Z,11.81
2023-03-22T06:46:20.184Z,11.83
2023-03-22T06:50:20.158Z,11.89
2023-03-22T06:54:20.171Z,11.89
2023-03-22T06:58:20.145Z,11.87
2023-03-22T07:02:20.015Z,11.95
2023-03-22T07:06:19.984Z,11.91
2023-03-22T07:10:19.938Z,11.95
2023-03-22T07:14:19.875Z,11.97
2023-03-22T07:18:19.977Z,11.93
2023-03-22T07:22:19.801Z,12.01
2023-03-22T07:26:19.817Z,11.96
2023-03-22T07:30:19.789Z,12.19
2023-03-22T07:34:19.772Z,12.22
2023-03-22T07:38:19.695Z,12.18
2023-03-22T07:42:19.676Z,12.43
2023-03-22T07:46:19.729Z,12.56
2023-03-22T07:50:19.623Z,12.63
2023-03-22T07:54:32.521Z,12.79
2023-03-22T07:58:20.563Z,12.88
2023-03-22T08:02:19.592Z,12.98
2023-03-22T08:06:19.649Z,13.05
2023-03-22T08:10:19.735Z,13.02
2023-03-22T08:14:30.528Z,13.00
2023-03-22T08:18:20.983Z,13.05
2023-03-22T08:22:19.999Z,13.19
2023-03-22T08:26:20.177Z,13.33
2023-03-22T08:30:20.036Z,13.49
2023-03-22T08:34:19.906Z,13.53
2023-03-22T08:38:19.865Z,13.63
2023-03-22T08:42:19.827Z,13.69
2023-03-22T08:46:19.791Z,13.73
2023-03-22T08:50:19.705Z,13.55
2023-03-22T08:54:19.640Z,13.73
2023-03-22T08:58:19.599Z,13.95
2023-03-22T09:02:19.634Z,13.92
2023-03-22T09:06:19.554Z,14.06
2023-03-22T09:10:19.526Z,14.31
2023-03-22T09:14:19.454Z,14.53
2023-03-22T09:18:19.421Z,14.76
2023-03-22T09:22:19.434Z,14.87
2023-03-22T09:26:19.354Z,14.93
2023-03-22T09:30:19.317Z,14.87
2023-03-22T09:34:19.347Z,15.00
2023-03-22T09:38:19.468Z,15.20
2023-03-22T09:42:19.466Z,15.24
2023-03-22T09:46:19.592Z,15.27
2023-03-22T09:50:19.369Z,15.35
2023-03-22T09:54:19.325Z,15.17
2023-03-22T09:58:19.283Z,15.36
2023-03-22T10:02:19.378Z,15.57
2023-03-22T10:06:19.205Z,15.63
2023-03-22T10:10:19.175Z,15.74
2023-03-22T10:14:19.153Z,15.84
2023-03-22T10:18:19.120Z,15.86
2023-03-22T10:22:19.121Z,15.99
2023-03-22T10:26:19.075Z,16.09
2023-03-22T10:30:19.010Z,16.13
2023-03-22T10:34:19.152Z,16.14
2023-03-22T10:38:19.009Z,16.30
2023-03-22T10:42:19.033Z,16.37
2023-03-22T10:46:19.192Z,16.42
2023-03-22T10:50:19.033Z,16.54
2023-03-22T10:54:19.016Z,16.71
2023-03-22T10:58:19.175Z,16.72
2023-03-22T11:02:19.706Z,16.80
2023-03-22T11:06:19.520Z,16.94
2023-03-22T11:10:19.403Z,17.05
2023-03-22T11:14:19.377Z,17.27
2023-03-22T11:18:19.381Z,17.29
2023-03-22T11:22:19.373Z,17.33
2023-03-22T11:26:19.285Z,17.44
2023-03-22T11:30:19.295Z,17.48
2023-03-22T11:34:19.249Z,17.60
2023-03-22T11:38:19.968Z,17.86
2023-03-22T11:42:18.999Z,18.06
2023-03-22T11:46:19.047Z,18.23
2023-03-22T11:50:18.831Z,18.22
2023-03-22T11:54:18.848Z,18.27
2023-03-22T11:58:18.750Z,18.59
2023-03-22T12:02:18.721Z,18.59
2023-03-22T12:06:18.734Z,18.50
2023-03-22T12:10:18.656Z,18.53
2023-03-22T12:14:18.638Z,18.66
2023-03-22T12:18:18.638Z,18.80
2023-03-22T12:22:18.696Z,18.92
2023-03-22T12:26:18.936Z,18.91
2023-03-22T12:30:19.179Z,18.99
2023-03-22T12:34:19.414Z,19.01
2023-03-22T12:38:19.613Z,19.06
2023-03-22T12:42:19.598Z,19.16
2023-03-22T12:46:19.660Z,19.31
2023-03-22T12:50:19.561Z,19.23
2023-03-22T12:54:19.952Z,19.23
2023-03-22T12:58:19.469Z,19.27
2023-03-22T13:02:19.386Z,19.41
2023-03-22T13:06:19.413Z,19.44
2023-03-22T13:10:19.457Z,19.47
2023-03-22T13:14:19.468Z,19.54
2023-03-22T13:18:19.327Z,19.45
2023-03-22T13:22:19.216Z,19.62
2023-03-22T13:26:19.391Z,19.72
2023-03-22T13:30:19.092Z,19.83
2023-03-22T13:34:19.388Z,19.75
2023-03-22T13:38:19.059Z,19.77
2023-03-22T13:42:19.037Z,19.74
2023-03-22T13:46:19.421Z,19.76
2023-03-22T13:50:19.404Z,19.87
2023-03-22T13:54:19.386Z,19.92
2023-03-22T13:58:18.876Z,19.83
2023-03-22T14:02:28.996Z,19.79
2023-03-22T14:06:18.913Z,19.78
2023-03-22T14:10:18.806Z,19.82
2023-03-22T14:14:18.756Z,19.97
2023-03-22T14:18:19.119Z,20.04
2023-03-22T14:47:21.122Z,19.63
2023-03-22T14:51:21.143Z,19.61
2023-03-22T14:55:20.902Z,19.63
2023-03-22T14:59:20.775Z,19.56
2023-03-22T15:03:21.261Z,19.58
2023-03-22T15:07:21.079Z,19.58
2023-03-22T15:11:21.083Z,19.60
2023-03-22T15:15:20.598Z,19.68
2023-03-22T15:19:21.065Z,19.64
2023-03-22T15:23:20.544Z,19.66
2023-03-22T15:27:21.168Z,19.64
2023-03-22T15:31:21.083Z,19.64
2023-03-22T15:35:20.835Z,19.63
2023-03-22T15:39:20.686Z,19.61
2023-03-22T15:43:21.079Z,19.59
2023-03-22T15:47:21.085Z,19.61
2023-03-22T15:51:20.610Z,19.60
2023-03-22T15:55:20.575Z,19.58
2023-03-22T15:59:20.525Z,19.56
2023-03-22T16:03:20.604Z,19.56
2023-03-22T16:07:20.610Z,19.56
2023-03-22T16:11:20.435Z,19.60
2023-03-22T16:15:20.386Z,19.58
2023-03-22T16:19:20.320Z,19.55
2023-03-22T16:23:20.275Z,19.53
2023-03-22T16:27:20.257Z,19.49
2023-03-22T16:31:20.270Z,19.42
2023-03-22T16:35:20.209Z,19.40
2023-03-22T16:39:20.309Z,19.37
2023-03-22T16:43:20.685Z,19.33
2023-03-22T16:47:20.647Z,19.29
2023-03-22T16:51:20.724Z,19.29
2023-03-22T16:55:21.166Z,19.28
2023-03-22T16:59:20.981Z,19.22
2023-03-22T17:03:21.125Z,19.13
2023-03-22T17:07:21.253Z,19.11
2023-03-22T17:11:21.460Z,19.12
2023-03-22T17:15:22.150Z,19.07
2023-03-22T17:19:21.618Z,19.02
2023-03-22T17:23:21.662Z,18.88
2023-03-22T17:27:21.619Z,18.79
2023-03-22T17:31:21.514Z,18.77
2023-03-22T17:35:21.612Z,18.87
2023-03-22T17:43:22.391Z,18.96
2023-03-22T17:51:21.328Z,18.95
2023-03-22T17:55:29.138Z,18.92
2023-03-22T17:59:22.605Z,18.92
2023-03-22T18:03:21.642Z,18.87
2023-03-22T18:07:21.163Z,18.82
2023-03-22T18:11:21.657Z,18.79
2023-03-22T18:15:21.644Z,18.74
2023-03-22T18:19:21.642Z,18.70
2023-03-22T18:23:21.579Z,18.66
2023-03-22T18:27:22.540Z,18.53
2023-03-22T18:31:21.639Z,18.52
2023-03-22T18:35:22.143Z,18.48
2023-03-22T18:40:04.592Z,18.37
2023-03-22T18:43:22.637Z,18.33
2023-03-22T18:47:21.604Z,18.30
2023-03-22T18:51:21.802Z,18.29
2023-03-22T18:55:29.496Z,18.25
2023-03-22T18:59:22.522Z,18.22
2023-03-22T19:03:21.435Z,18.13
2023-03-22T19:07:40.729Z,18.06
2023-03-22T19:11:22.400Z,18.03
2023-03-22T19:15:44.118Z,17.98
2023-03-22T19:19:22.336Z,17.84
2023-03-22T19:23:21.492Z,17.84
2023-03-22T19:27:24.939Z,17.81
2023-03-22T19:31:21.742Z,17.75
2023-03-22T19:35:21.445Z,17.70
2023-03-22T19:39:22.197Z,17.64
2023-03-22T19:43:21.300Z,17.57
2023-03-22T19:47:22.280Z,17.55
2023-03-22T19:51:21.219Z,17.52
2023-03-22T19:55:21.655Z,17.50
2023-03-22T19:59:21.213Z,17.44
2023-03-22T20:03:21.214Z,17.41
2023-03-22T20:07:21.096Z,17.38
2023-03-22T20:11:29.718Z,17.33
2023-03-22T20:15:22.017Z,17.25
2023-03-22T20:19:21.218Z,17.17
2023-03-22T20:23:21.052Z,17.07
2023-03-22T20:27:21.096Z,17.03
2023-03-22T20:31:21.695Z,16.99
2023-03-22T20:35:21.531Z,16.95
2023-03-22T20:39:21.691Z,16.80
2023-03-22T20:43:21.673Z,16.79
2023-03-22T20:47:21.720Z,16.76
2023-03-22T20:51:21.573Z,16.73
2023-03-22T20:55:21.708Z,16.70
2023-03-22T20:59:21.530Z,16.69
2023-03-22T21:03:21.504Z,16.65
2023-03-22T21:07:21.664Z,16.64
2023-03-22T21:11:21.701Z,16.59
2023-03-22T21:15:21.773Z,16.53
2023-03-22T21:19:21.858Z,16.52
2023-03-22T21:23:21.784Z,16.48
2023-03-22T21:27:21.279Z,16.46
2023-03-22T21:31:21.774Z,16.43
2023-03-22T21:35:21.182Z,16.43
2023-03-22T21:39:21.159Z,16.41
2023-03-22T21:43:21.113Z,16.35
2023-03-22T21:47:21.236Z,16.32
2023-03-22T21:51:21.193Z,16.23
2023-03-22T21:55:21.023Z,16.22
2023-03-22T21:59:21.233Z,16.14
2023-03-22T22:03:20.946Z,16.11
2023-03-22T22:07:21.230Z,16.07
2023-03-22T22:11:21.157Z,16.03
2023-03-22T22:15:21.697Z,15.98
2023-03-22T22:19:21.405Z,15.95
2023-03-22T22:23:21.823Z,15.95
2023-03-22T22:27:21.229Z,15.92
2023-03-22T22:31:21.243Z,15.84
2023-03-22T22:35:21.286Z,15.80
2023-03-22T22:39:21.161Z,15.75
2023-03-22T22:43:21.115Z,15.74
2023-03-22T22:47:21.091Z,15.71
2023-03-22T22:51:21.032Z,15.64
2023-03-22T22:55:21.142Z,15.62
2023-03-22T22:59:20.986Z,15.57
2023-03-22T23:03:20.943Z,15.51
2023-03-22T23:07:20.886Z,15.46
2023-03-22T23:11:21.224Z,15.42
2023-03-22T23:15:27.130Z,15.35
2023-03-22T23:19:22.223Z,15.33
2023-03-22T23:23:20.751Z,15.32
2023-03-22T23:27:20.817Z,15.33
2023-03-22T23:31:21.331Z,15.29
2023-03-22T23:35:20.994Z,15.29
2023-03-22T23:39:21.084Z,15.26
2023-03-22T23:43:21.208Z,15.20
2023-03-22T23:47:21.311Z,15.19
2023-03-22T23:51:21.415Z,15.16
2023-03-22T23:55:21.758Z,15.14
2023-03-22T23:59:21.799Z,15.08
